Terminal Aerodrome Forecast
Issued by NWS

Home | Current Version | Previous Version | Text Only | Print | Product List | Glossary On
Versions: 1 2 3 4 5 6 7 8 9 10 11 12 13 14 15 16
000
FTUS44 KSJT 071100
TAFBBD
TAF
KBBD 071125Z 0712/0812 16010KT P6SM BKN025
     FM071500 16013KT P6SM VCSH BKN035
      TEMPO 0715/0718 5SM -SHRA OVC035
     FM072000 15014G20KT P6SM -SHRA VCTS BKN040CB
     FM080200 14012KT P6SM VCSH BKN040
     FM080600 15012KT P6SM VCSH OVC025=

USA.gov is the U.S. government's official web portal to all federal, state and local government web resources and services.